createdAt,value
2022-10-18T00:02:26.251Z,14.51
2022-10-18T00:04:52.690Z,14.50
2022-10-18T00:07:19.132Z,14.46
2022-10-18T00:09:45.534Z,14.39
2022-10-18T00:12:11.975Z,14.35
2022-10-18T00:14:38.454Z,14.34
2022-10-18T00:17:04.916Z,14.32
2022-10-18T00:19:31.347Z,14.23
2022-10-18T00:21:57.780Z,14.15
2022-10-18T00:24:24.206Z,14.17
2022-10-18T00:26:50.594Z,14.30
2022-10-18T00:29:17.050Z,14.36
2022-10-18T00:31:44.593Z,14.36
2022-10-18T00:34:14.278Z,14.32
2022-10-18T00:36:41.746Z,14.33
2022-10-18T00:39:12.041Z,14.31
2022-10-18T00:41:38.546Z,14.36
2022-10-18T00:44:12.675Z,14.30
2022-10-18T00:46:45.210Z,14.31
2022-10-18T00:49:16.160Z,14.31
2022-10-18T00:51:46.713Z,14.34
2022-10-18T00:54:15.424Z,14.34
2022-10-18T00:56:44.675Z,14.29
2022-10-18T00:59:13.721Z,14.27
2022-10-18T01:01:40.237Z,14.27
2022-10-18T01:04:06.678Z,14.27
2022-10-18T01:06:38.459Z,14.15
2022-10-18T01:09:09.096Z,14.09
2022-10-18T01:11:58.783Z,14.09
2022-10-18T01:14:45.932Z,14.04
2022-10-18T01:17:27.581Z,14.07
2022-10-18T01:20:06.436Z,14.09
2022-10-18T01:22:47.874Z,14.12
2022-10-18T01:25:36.066Z,14.07
2022-10-18T01:28:17.352Z,13.95
2022-10-18T01:31:00.935Z,13.76
2022-10-18T01:33:32.576Z,13.63
2022-10-18T01:36:02.565Z,13.58
2022-10-18T01:38:32.340Z,13.66
2022-10-18T01:41:01.445Z,13.68
2022-10-18T01:43:29.974Z,13.56
2022-10-18T01:45:57.686Z,13.45
2022-10-18T01:48:25.436Z,13.38
2022-10-18T01:50:54.032Z,13.39
2022-10-18T01:53:32.440Z,13.42
2022-10-18T01:56:26.194Z,13.39
2022-10-18T01:59:07.436Z,13.35
2022-10-18T02:01:41.136Z,13.40
2022-10-18T02:04:20.553Z,13.43
2022-10-18T02:06:53.720Z,13.35
2022-10-18T02:09:38.476Z,13.28
2022-10-18T02:12:10.441Z,13.23
2022-10-18T02:14:37.225Z,13.24
2022-10-18T02:17:07.970Z,13.29
2022-10-18T02:19:41.897Z,13.35
2022-10-18T02:22:10.657Z,13.31
2022-10-18T02:24:44.793Z,13.38
2022-10-18T02:27:11.445Z,13.50
2022-10-18T02:29:39.421Z,13.54
2022-10-18T02:32:15.765Z,13.51
2022-10-18T02:34:47.919Z,13.52
2022-10-18T02:37:16.261Z,13.45
2022-10-18T02:39:47.120Z,13.38
2022-10-18T02:42:14.155Z,13.34
2022-10-18T02:44:40.655Z,13.32
2022-10-18T02:47:09.395Z,13.29
2022-10-18T02:49:35.844Z,13.25
2022-10-18T02:52:02.379Z,13.20
2022-10-18T02:54:28.811Z,13.15
2022-10-18T02:56:55.514Z,13.21
2022-10-18T02:59:21.969Z,13.33
2022-10-18T03:01:48.421Z,13.28
2022-10-18T03:04:14.965Z,13.25
2022-10-18T03:06:41.546Z,13.31
2022-10-18T03:09:08.004Z,13.26
2022-10-18T03:11:34.458Z,13.26
2022-10-18T03:14:00.862Z,13.33
2022-10-18T03:16:27.457Z,13.40
2022-10-18T03:18:53.943Z,13.47
2022-10-18T03:21:20.363Z,13.42
2022-10-18T03:23:46.821Z,13.35
2022-10-18T03:26:13.384Z,13.28
2022-10-18T03:28:39.824Z,13.31
2022-10-18T03:31:06.337Z,13.36
2022-10-18T03:33:33.336Z,13.34
2022-10-18T03:36:00.086Z,13.34
2022-10-18T03:38:26.960Z,13.32
2022-10-18T03:40:53.366Z,13.32
2022-10-18T03:43:19.815Z,13.33
2022-10-18T03:45:46.212Z,13.37
2022-10-18T03:48:12.629Z,13.37
2022-10-18T03:50:39.068Z,13.39
2022-10-18T03:53:05.510Z,13.42
2022-10-18T03:55:32.047Z,13.41
2022-10-18T03:57:58.581Z,13.45
2022-10-18T04:00:25.527Z,13.37
2022-10-18T04:02:54.971Z,13.33
2022-10-18T04:05:24.133Z,13.36
2022-10-18T04:07:50.788Z,13.35
2022-10-18T04:10:18.582Z,13.27
2022-10-18T04:12:45.007Z,13.13
2022-10-18T04:15:11.774Z,13.01
2022-10-18T04:17:38.183Z,12.95
2022-10-18T04:20:05.165Z,12.91
2022-10-18T04:22:31.596Z,12.88
2022-10-18T04:24:58.098Z,12.83
2022-10-18T04:27:24.635Z,12.84
2022-10-18T04:29:51.115Z,12.74
2022-10-18T04:32:17.594Z,12.71
2022-10-18T04:37:15.356Z,12.80
2022-10-18T04:39:49.787Z,12.89
2022-10-18T04:42:19.199Z,12.97
2022-10-18T04:44:45.743Z,13.03
2022-10-18T04:47:12.212Z,13.04
2022-10-18T04:49:38.728Z,13.04
2022-10-18T04:52:05.290Z,13.07
2022-10-18T04:54:31.748Z,13.09
2022-10-18T04:56:58.309Z,13.17
2022-10-18T04:59:24.803Z,13.27
2022-10-18T05:01:51.416Z,13.22
2022-10-18T05:04:17.885Z,13.16
2022-10-18T05:06:44.282Z,13.12
2022-10-18T05:09:10.745Z,13.08
2022-10-18T05:11:37.174Z,13.06
2022-10-18T05:14:03.714Z,13.04
2022-10-18T05:16:31.910Z,13.02
2022-10-18T05:18:58.460Z,12.98
2022-10-18T05:21:24.946Z,13.00
2022-10-18T05:23:56.289Z,12.88
2022-10-18T05:26:22.991Z,12.84
2022-10-18T05:28:50.660Z,12.89
2022-10-18T05:31:17.496Z,12.97
2022-10-18T05:33:43.935Z,13.01
2022-10-18T05:36:11.189Z,12.97
2022-10-18T05:38:45.410Z,12.96
2022-10-18T05:41:12.553Z,12.94
2022-10-18T05:43:39.880Z,12.93
2022-10-18T05:46:13.603Z,12.93
2022-10-18T05:48:41.961Z,12.93
2022-10-18T05:51:08.398Z,12.94
2022-10-18T05:53:37.155Z,13.00
2022-10-18T05:56:05.167Z,13.07
2022-10-18T05:58:31.612Z,13.12
2022-10-18T06:01:00.392Z,13.16
2022-10-18T06:03:27.726Z,13.19
2022-10-18T06:06:03.110Z,13.15
2022-10-18T06:08:29.587Z,13.14
2022-10-18T06:10:56.644Z,13.09
2022-10-18T06:13:23.254Z,13.05
2022-10-18T06:15:50.079Z,13.04
2022-10-18T06:18:16.533Z,13.00
2022-10-18T06:20:42.932Z,13.01
2022-10-18T06:23:09.432Z,13.07
2022-10-18T06:25:35.838Z,13.17
2022-10-18T06:28:05.988Z,13.29
2022-10-18T06:30:34.867Z,13.37
2022-10-18T06:33:01.342Z,13.40
2022-10-18T06:35:27.844Z,13.41
2022-10-18T06:37:54.393Z,13.44
2022-10-18T06:40:20.849Z,13.39
2022-10-18T06:42:59.921Z,13.41
2022-10-18T06:45:27.206Z,13.35
2022-10-18T06:47:53.649Z,13.42
2022-10-18T06:50:20.063Z,13.54
2022-10-18T06:52:48.799Z,13.64
2022-10-18T06:55:15.289Z,13.68
2022-10-18T06:57:41.766Z,13.65
2022-10-18T07:00:09.033Z,13.66
2022-10-18T07:02:35.506Z,13.74
2022-10-18T07:05:02.137Z,13.80
2022-10-18T07:07:31.486Z,13.84
2022-10-18T07:09:58.309Z,13.89
2022-10-18T07:12:24.843Z,13.95
2022-10-18T07:14:51.326Z,14.01
2022-10-18T07:17:17.751Z,14.00
2022-10-18T07:19:44.162Z,14.05
2022-10-18T07:22:10.580Z,14.12
2022-10-18T07:24:37.033Z,14.23
2022-10-18T07:27:03.644Z,14.35
2022-10-18T07:29:30.146Z,14.41
2022-10-18T07:31:56.590Z,14.51
2022-10-18T07:34:23.210Z,14.56
2022-10-18T07:36:49.635Z,14.63
2022-10-18T07:39:16.177Z,14.70
2022-10-18T07:41:42.627Z,14.81
2022-10-18T07:44:09.165Z,14.99
2022-10-18T07:46:35.801Z,15.20
2022-10-18T07:49:02.249Z,15.42
2022-10-18T07:51:30.889Z,15.23
2022-10-18T07:53:57.327Z,15.24
2022-10-18T07:56:23.801Z,15.14
2022-10-18T07:58:52.542Z,15.14
2022-10-18T08:01:21.184Z,15.19
2022-10-18T08:03:47.796Z,15.28
2022-10-18T08:06:17.924Z,15.36
2022-10-18T08:08:45.152Z,15.44
2022-10-18T08:11:21.958Z,15.53
2022-10-18T08:13:49.105Z,15.62
2022-10-18T08:16:21.698Z,15.67
2022-10-18T08:18:48.363Z,15.78
2022-10-18T08:21:16.471Z,15.85
2022-10-18T08:23:42.909Z,15.93
2022-10-18T08:26:12.686Z,16.02
2022-10-18T08:28:39.748Z,16.08
2022-10-18T08:31:08.947Z,16.19
2022-10-18T08:33:36.222Z,16.29
2022-10-18T08:36:07.606Z,16.35
2022-10-18T08:38:38.677Z,16.41
2022-10-18T08:41:23.802Z,16.49
2022-10-18T08:44:15.866Z,16.57
2022-10-18T08:46:46.241Z,16.66
2022-10-18T08:49:26.758Z,16.77
2022-10-18T08:51:53.965Z,16.91
2022-10-18T08:54:48.311Z,16.99
2022-10-18T08:57:18.123Z,17.11
2022-10-18T08:59:44.679Z,17.24
2022-10-18T09:02:29.918Z,17.31
2022-10-18T09:05:04.279Z,17.40
2022-10-18T09:07:45.671Z,17.49
2022-10-18T09:10:38.144Z,17.60
2022-10-18T09:13:30.991Z,17.92
2022-10-18T09:16:30.382Z,18.04
2022-10-18T09:19:36.318Z,18.03
2022-10-18T09:22:22.141Z,18.11
2022-10-18T09:25:20.548Z,18.28
2022-10-18T09:28:04.906Z,18.39
2022-10-18T09:30:52.999Z,18.53
2022-10-18T09:33:30.038Z,18.61
2022-10-18T09:36:10.170Z,18.70
2022-10-18T09:39:00.434Z,18.80
2022-10-18T09:42:00.166Z,18.97
2022-10-18T09:44:51.774Z,18.96
2022-10-18T09:47:26.359Z,18.99
2022-10-18T09:49:59.039Z,19.03
2022-10-18T09:52:34.938Z,19.12
2022-10-18T09:55:09.383Z,19.17
2022-10-18T09:57:42.781Z,19.34
2022-10-18T10:00:19.133Z,19.43
2022-10-18T10:02:45.630Z,19.43
2022-10-18T10:05:15.512Z,19.40
2022-10-18T10:07:44.621Z,19.43
2022-10-18T10:10:22.030Z,19.46
2022-10-18T10:13:01.994Z,19.56
2022-10-18T10:15:33.125Z,19.71
2022-10-18T10:18:26.018Z,19.81
2022-10-18T10:20:55.748Z,19.89
2022-10-18T10:23:29.346Z,19.88
2022-10-18T10:25:59.487Z,20.01
2022-10-18T10:28:30.179Z,20.08
2022-10-18T10:31:25.479Z,20.18
2022-10-18T10:34:14.564Z,20.25
2022-10-18T10:36:53.406Z,20.38
2022-10-18T10:39:22.615Z,20.44
2022-10-18T10:41:51.872Z,20.54
2022-10-18T10:44:21.212Z,20.58
2022-10-18T10:46:50.148Z,20.55
2022-10-18T10:49:42.482Z,20.50
2022-10-18T10:52:28.335Z,20.79
2022-10-18T10:55:33.712Z,20.96
2022-10-18T10:57:47.176Z,21.06
2022-10-18T11:00:40.737Z,21.06
2022-10-18T11:03:29.095Z,21.15
2022-10-18T11:05:57.781Z,21.15
2022-10-18T11:08:31.393Z,21.14
2022-10-18T11:11:22.258Z,21.13
2022-10-18T11:14:07.396Z,21.18
2022-10-18T11:17:17.608Z,21.17
2022-10-18T11:19:52.779Z,21.17
2022-10-18T11:22:21.966Z,21.28
2022-10-18T11:24:48.502Z,21.26
2022-10-18T11:27:29.693Z,21.36
2022-10-18T11:30:02.097Z,21.40
2022-10-18T11:32:59.493Z,21.56
2022-10-18T11:35:41.057Z,21.74
2022-10-18T11:38:31.266Z,21.57
2022-10-18T11:41:04.233Z,21.52
2022-10-18T11:44:02.712Z,21.64
2022-10-18T11:47:11.320Z,21.64
2022-10-18T11:50:07.672Z,21.69
2022-10-18T11:53:07.538Z,21.86
2022-10-18T11:55:49.046Z,21.90
2022-10-18T11:58:37.759Z,22.03
2022-10-18T12:01:24.683Z,22.09
2022-10-18T12:04:02.021Z,22.14
2022-10-18T12:06:34.906Z,22.06
2022-10-18T12:09:08.083Z,22.13
2022-10-18T12:11:45.312Z,22.14
2022-10-18T12:14:27.113Z,22.09
2022-10-18T12:17:20.316Z,22.02
2022-10-18T12:19:45.689Z,22.32
2022-10-18T12:22:23.068Z,22.28
2022-10-18T12:24:49.945Z,22.20
2022-10-18T12:27:17.732Z,22.18
2022-10-18T12:30:05.553Z,22.25
2022-10-18T12:32:36.660Z,22.25
2022-10-18T12:35:13.554Z,22.27
2022-10-18T12:37:51.476Z,22.21
2022-10-18T12:40:23.437Z,22.20
2022-10-18T12:42:52.480Z,22.16
2022-10-18T12:45:33.031Z,22.16
2022-10-18T12:48:07.127Z,22.19
2022-10-18T12:50:34.900Z,22.25
2022-10-18T12:53:07.746Z,22.38
2022-10-18T12:58:15.807Z,22.46
2022-10-18T13:00:42.222Z,22.54
2022-10-18T13:03:20.609Z,22.52
2022-10-18T13:05:52.790Z,22.51
2022-10-18T13:08:30.220Z,22.55
2022-10-18T13:11:08.968Z,22.54
2022-10-18T13:16:54.467Z,22.48
2022-10-18T13:19:35.098Z,22.39
2022-10-18T13:22:22.947Z,22.43
2022-10-18T13:25:04.690Z,22.48
2022-10-18T13:28:00.962Z,22.46
2022-10-18T13:30:40.946Z,22.55
2022-10-18T13:33:22.585Z,22.66
2022-10-18T13:36:01.271Z,22.71
2022-10-18T13:38:36.662Z,22.59
2022-10-18T13:41:05.973Z,22.48
2022-10-18T13:43:52.609Z,22.55
2022-10-18T13:46:20.700Z,22.50
2022-10-18T13:48:52.781Z,22.51
2022-10-18T13:51:44.385Z,22.60
2022-10-18T13:54:18.990Z,22.54
2022-10-18T13:57:03.790Z,22.62
2022-10-18T13:59:53.916Z,22.71
2022-10-18T14:02:55.053Z,22.84
2022-10-18T14:05:43.095Z,22.81
2022-10-18T14:08:16.242Z,22.74
2022-10-18T14:11:17.922Z,22.67
2022-10-18T14:13:52.239Z,22.67
2022-10-18T14:16:34.982Z,22.64
2022-10-18T14:19:13.816Z,22.63
2022-10-18T14:21:49.182Z,22.63
2022-10-18T14:24:21.440Z,22.67
2022-10-18T14:26:48.038Z,22.64
2022-10-18T14:29:20.265Z,22.55
2022-10-18T14:31:54.528Z,22.52
2022-10-18T14:34:22.138Z,22.51
2022-10-18T14:36:49.642Z,22.51
2022-10-18T14:39:27.434Z,22.55
2022-10-18T14:41:57.278Z,22.55
2022-10-18T14:44:32.024Z,22.51
2022-10-18T14:47:01.599Z,22.46
2022-10-18T14:49:28.681Z,22.43
2022-10-18T14:51:58.420Z,22.40
2022-10-18T14:54:36.268Z,22.41
2022-10-18T14:57:04.634Z,22.39
2022-10-18T14:59:38.380Z,22.39
2022-10-18T15:02:14.564Z,22.40
2022-10-18T15:04:44.149Z,22.39
2022-10-18T15:07:17.595Z,22.36
2022-10-18T15:09:45.313Z,22.34
2022-10-18T15:12:14.949Z,22.34
2022-10-18T15:14:42.550Z,22.31
2022-10-18T15:17:30.897Z,22.26
2022-10-18T15:20:03.503Z,22.26
2022-10-18T15:22:33.282Z,22.22
2022-10-18T15:25:05.887Z,22.17
2022-10-18T15:27:36.293Z,22.10
2022-10-18T15:30:28.950Z,22.05
2022-10-18T15:33:03.125Z,21.92
2022-10-18T15:35:34.743Z,21.83
2022-10-18T15:38:22.922Z,21.80
2022-10-18T15:40:49.505Z,21.74
2022-10-18T15:43:27.993Z,21.69
2022-10-18T15:46:00.093Z,21.65
2022-10-18T15:48:39.892Z,21.57
2022-10-18T15:51:28.626Z,21.47
2022-10-18T15:53:59.051Z,21.41
2022-10-18T15:56:38.274Z,21.35
2022-10-18T15:59:20.683Z,21.27
2022-10-18T16:01:54.184Z,21.18
2022-10-18T16:04:23.511Z,21.10
2022-10-18T16:06:50.395Z,21.01
2022-10-18T16:09:22.506Z,20.95
2022-10-18T16:11:56.652Z,20.90
2022-10-18T16:14:27.286Z,20.84
2022-10-18T16:17:02.009Z,20.76
2022-10-18T16:19:43.520Z,20.66
2022-10-18T16:24:44.695Z,20.51
2022-10-18T16:27:14.585Z,20.43
2022-10-18T16:29:41.623Z,20.36
2022-10-18T16:32:08.037Z,20.31
2022-10-18T16:34:34.481Z,20.24
2022-10-18T16:37:01.210Z,20.20
2022-10-18T16:39:29.176Z,20.16
2022-10-18T16:42:02.103Z,20.11
2022-10-18T16:44:28.562Z,20.06
2022-10-18T16:46:58.276Z,20.00
2022-10-18T16:49:26.311Z,19.95
2022-10-18T16:51:54.304Z,19.90
2022-10-18T16:54:21.085Z,19.85
2022-10-18T16:56:47.761Z,19.82
2022-10-18T16:59:32.450Z,19.80
2022-10-18T17:02:01.473Z,19.75
2022-10-18T17:04:29.105Z,19.72
2022-10-18T17:06:57.597Z,19.69
2022-10-18T17:09:24.038Z,19.62
2022-10-18T17:11:50.446Z,19.58
2022-10-18T17:14:16.894Z,19.54
2022-10-18T17:16:45.434Z,19.52
2022-10-18T17:19:14.830Z,19.46
2022-10-18T17:21:41.268Z,19.38
2022-10-18T17:24:07.700Z,19.30
2022-10-18T17:26:34.634Z,19.26
2022-10-18T17:29:04.647Z,19.17
2022-10-18T17:31:32.758Z,19.06
2022-10-18T17:34:01.635Z,18.99
2022-10-18T17:36:29.492Z,18.97
2022-10-18T17:38:56.312Z,18.96
2022-10-18T17:41:22.943Z,18.94
2022-10-18T17:43:49.837Z,18.92
2022-10-18T17:46:17.706Z,18.86
2022-10-18T17:48:44.203Z,18.83
2022-10-18T17:51:12.449Z,18.80
2022-10-18T17:53:39.107Z,18.77
2022-10-18T17:56:07.293Z,18.66
2022-10-18T17:58:34.214Z,18.65
2022-10-18T18:01:18.365Z,18.61
2022-10-18T18:03:45.087Z,18.53
2022-10-18T18:06:19.579Z,18.50
2022-10-18T18:08:47.693Z,18.42
2022-10-18T18:11:14.461Z,18.35
2022-10-18T18:13:41.259Z,18.28
2022-10-18T18:16:16.195Z,18.26
2022-10-18T18:18:42.955Z,18.26
2022-10-18T18:21:09.414Z,18.27
2022-10-18T18:23:35.870Z,18.25
2022-10-18T18:26:02.496Z,18.21
2022-10-18T18:28:29.037Z,18.17
2022-10-18T18:30:55.648Z,18.12
2022-10-18T18:33:22.123Z,18.11
2022-10-18T18:35:58.574Z,18.01
2022-10-18T18:38:25.807Z,17.90
2022-10-18T18:41:08.890Z,17.87
2022-10-18T18:43:36.288Z,17.85
2022-10-18T18:46:03.135Z,17.84
2022-10-18T18:48:32.176Z,17.78
2022-10-18T18:50:58.653Z,17.69
2022-10-18T18:53:28.534Z,17.67
2022-10-18T18:56:01.624Z,17.64
2022-10-18T18:58:28.020Z,17.60
2022-10-18T19:00:54.422Z,17.57
2022-10-18T19:03:20.833Z,17.54
2022-10-18T19:05:47.244Z,17.49
2022-10-18T19:08:13.650Z,17.43
2022-10-18T19:10:40.118Z,17.45
2022-10-18T19:13:06.534Z,17.47
2022-10-18T19:15:33.729Z,17.49
2022-10-18T19:18:00.140Z,17.49
2022-10-18T19:20:26.585Z,17.51
2022-10-18T19:22:53.524Z,17.48
2022-10-18T19:25:22.166Z,17.38
2022-10-18T19:27:51.165Z,17.30
2022-10-18T19:30:19.700Z,17.24
2022-10-18T19:32:46.108Z,17.22
2022-10-18T19:35:12.519Z,17.26
2022-10-18T19:37:38.964Z,17.29
2022-10-18T19:40:06.069Z,17.26
2022-10-18T19:42:32.899Z,17.16
2022-10-18T19:44:59.591Z,17.06
2022-10-18T19:47:26.012Z,16.99
2022-10-18T19:49:53.721Z,16.96
2022-10-18T19:52:20.160Z,16.97
2022-10-18T19:54:48.861Z,16.90
2022-10-18T19:57:15.419Z,16.80
2022-10-18T20:02:15.000Z,16.74
2022-10-18T20:04:41.619Z,16.77
2022-10-18T20:07:08.134Z,16.72
2022-10-18T20:09:34.649Z,16.67
2022-10-18T20:12:01.171Z,16.72
2022-10-18T20:14:27.608Z,16.75
2022-10-18T20:16:54.003Z,16.76
2022-10-18T20:19:20.457Z,16.57
2022-10-18T20:21:46.885Z,16.51
2022-10-18T20:24:13.399Z,16.57
2022-10-18T20:26:39.986Z,16.41
2022-10-18T20:29:07.661Z,16.34
2022-10-18T20:31:37.101Z,16.34
2022-10-18T20:34:10.619Z,16.37
2022-10-18T20:36:37.689Z,16.21
2022-10-18T20:39:04.924Z,16.11
2022-10-18T20:41:34.194Z,16.14
2022-10-18T20:44:14.300Z,16.09
2022-10-18T20:46:40.944Z,16.07
2022-10-18T20:49:10.316Z,16.15
2022-10-18T20:51:36.750Z,16.16
2022-10-18T20:56:34.205Z,16.13
2022-10-18T20:59:01.017Z,16.08
2022-10-18T21:01:30.334Z,16.03
2022-10-18T21:03:58.804Z,16.09
2022-10-18T21:06:44.649Z,16.09
2022-10-18T21:09:14.397Z,15.90
2022-10-18T21:11:44.637Z,15.80
2022-10-18T21:14:13.880Z,15.83
2022-10-18T21:16:41.026Z,15.79
2022-10-18T21:19:17.458Z,15.77
2022-10-18T21:21:46.336Z,15.71
2022-10-18T21:24:14.118Z,15.72
2022-10-18T21:26:40.639Z,15.79
2022-10-18T21:29:07.551Z,15.85
2022-10-18T21:31:36.255Z,15.84
2022-10-18T21:34:09.876Z,15.81
2022-10-18T21:36:37.661Z,15.75
2022-10-18T21:39:05.921Z,15.62
2022-10-18T21:41:33.174Z,15.56
2022-10-18T21:44:04.462Z,15.59
2022-10-18T21:46:33.387Z,15.66
2022-10-18T21:48:59.802Z,15.66
2022-10-18T21:51:27.878Z,15.61
2022-10-18T21:53:56.393Z,15.59
2022-10-18T21:56:36.043Z,15.47
2022-10-18T21:59:03.602Z,15.46
2022-10-18T22:01:37.722Z,15.46
2022-10-18T22:04:07.316Z,15.36
2022-10-18T22:09:08.321Z,15.35
2022-10-18T22:11:38.946Z,15.34
2022-10-18T22:14:05.453Z,15.41
2022-10-18T22:16:31.911Z,15.38
2022-10-18T22:19:00.608Z,15.35
2022-10-18T22:21:28.234Z,15.25
2022-10-18T22:23:59.563Z,15.24
2022-10-18T22:26:29.179Z,15.21
2022-10-18T22:29:05.914Z,15.18
2022-10-18T22:31:35.111Z,15.21
2022-10-18T22:34:04.651Z,15.03
2022-10-18T22:36:32.121Z,14.98
2022-10-18T22:38:58.600Z,14.95
2022-10-18T22:41:25.043Z,14.87
2022-10-18T22:43:52.634Z,14.90
2022-10-18T22:46:19.151Z,14.98
2022-10-18T22:48:46.296Z,14.92
2022-10-18T22:51:13.044Z,14.88
2022-10-18T22:53:40.741Z,14.94
2022-10-18T22:56:11.471Z,15.02
2022-10-18T22:58:37.884Z,15.07
2022-10-18T23:01:07.330Z,15.08
2022-10-18T23:03:34.487Z,14.99
2022-10-18T23:06:01.520Z,14.92
2022-10-18T23:08:28.490Z,14.88
2022-10-18T23:10:58.033Z,14.80
2022-10-18T23:13:26.117Z,14.80
2022-10-18T23:15:53.234Z,14.83
2022-10-18T23:18:19.744Z,14.81
2022-10-18T23:20:46.188Z,14.87
2022-10-18T23:23:13.092Z,14.93
2022-10-18T23:25:40.022Z,14.94
2022-10-18T23:28:06.477Z,14.94
2022-10-18T23:30:33.737Z,14.93
2022-10-18T23:33:00.162Z,14.93
2022-10-18T23:35:26.562Z,14.85
2022-10-18T23:37:52.947Z,14.71
2022-10-18T23:40:19.455Z,14.65
2022-10-18T23:42:45.866Z,14.56
2022-10-18T23:45:12.286Z,14.63
2022-10-18T23:47:38.732Z,14.67
2022-10-18T23:50:05.737Z,14.70
2022-10-18T23:52:32.149Z,14.54
2022-10-18T23:54:58.617Z,14.49
2022-10-18T23:57:25.018Z,14.39
2022-10-18T23:59:51.429Z,14.39
